sensor_id;sensor_type;location;lat;lon;timestamp;pressure;altitude;pressure_sealevel;temperature;humidity
41800;BME280;27468;47.460;19.034;2023-10-08T00:00:13;100480.00;;;17.23;44.68
41800;BME280;27468;47.460;19.034;2023-10-08T00:03:14;100489.59;;;17.27;44.39
41800;BME280;27468;47.460;19.034;2023-10-08T00:05:40;100500.53;;;17.39;45.01
41800;BME280;27468;47.460;19.034;2023-10-08T00:08:07;100502.31;;;17.39;45.06
41800;BME280;27468;47.460;19.034;2023-10-08T00:10:39;100492.75;;;17.35;45.25
41800;BME280;27468;47.460;19.034;2023-10-08T00:13:10;100464.09;;;17.21;45.06
41800;BME280;27468;47.460;19.034;2023-10-08T00:15:36;100477.69;;;17.34;45.30
41800;BME280;27468;47.460;19.034;2023-10-08T00:18:05;100491.13;;;17.32;45.36
41800;BME280;27468;47.460;19.034;2023-10-08T00:20:37;100472.00;;;17.23;45.35
41800;BME280;27468;47.460;19.034;2023-10-08T00:23:22;100480.34;;;17.34;45.77
41800;BME280;27468;47.460;19.034;2023-10-08T00:25:54;100441.19;;;17.17;45.79
41800;BME280;27468;47.460;19.034;2023-10-08T00:28:20;100466.28;;;17.32;46.05
41800;BME280;27468;47.460;19.034;2023-10-08T00:30:46;100471.88;;;17.26;46.49
41800;BME280;27468;47.460;19.034;2023-10-08T00:33:13;100485.94;;;17.29;47.20
41800;BME280;27468;47.460;19.034;2023-10-08T00:35:40;100464.31;;;17.16;47.30
41800;BME280;27468;47.460;19.034;2023-10-08T00:38:10;100479.41;;;17.16;47.49
41800;BME280;27468;47.460;19.034;2023-10-08T00:40:45;100482.09;;;17.16;47.78
41800;BME280;27468;47.460;19.034;2023-10-08T00:43:30;100472.63;;;17.09;48.20
41800;BME280;27468;47.460;19.034;2023-10-08T00:46:01;100479.97;;;17.04;48.56
41800;BME280;27468;47.460;19.034;2023-10-08T00:48:27;100421.66;;;16.77;48.57
41800;BME280;27468;47.460;19.034;2023-10-08T00:50:56;100465.13;;;16.98;48.51
41800;BME280;27468;47.460;19.034;2023-10-08T00:53:35;100461.53;;;16.99;49.02
41800;BME280;27468;47.460;19.034;2023-10-08T00:56:06;100471.03;;;17.05;49.30
41800;BME280;27468;47.460;19.034;2023-10-08T00:58:41;100461.88;;;16.92;49.40
41800;BME280;27468;47.460;19.034;2023-10-08T01:01:06;100450.41;;;16.90;49.49
41800;BME280;27468;47.460;19.034;2023-10-08T01:03:37;100395.06;;;16.57;49.80
41800;BME280;27468;47.460;19.034;2023-10-08T01:06:09;100409.31;;;16.56;50.02
41800;BME280;27468;47.460;19.034;2023-10-08T01:08:36;100455.34;;;16.78;50.52
41800;BME280;27468;47.460;19.034;2023-10-08T01:11:22;100466.88;;;16.79;50.58
41800;BME280;27468;47.460;19.034;2023-10-08T01:14:07;100449.09;;;16.59;51.26
41800;BME280;27468;47.460;19.034;2023-10-08T01:16:33;100447.63;;;16.52;51.73
41800;BME280;27468;47.460;19.034;2023-10-08T01:18:59;100423.47;;;16.36;52.02
41800;BME280;27468;47.460;19.034;2023-10-08T01:21:28;100446.41;;;16.39;52.52
41800;BME280;27468;47.460;19.034;2023-10-08T01:24:02;100429.19;;;16.27;53.22
41800;BME280;27468;47.460;19.034;2023-10-08T01:26:31;100444.22;;;16.28;53.45
41800;BME280;27468;47.460;19.034;2023-10-08T01:28:57;100442.72;;;16.21;53.68
41800;BME280;27468;47.460;19.034;2023-10-08T01:31:27;100371.25;;;15.71;53.98
41800;BME280;27468;47.460;19.034;2023-10-08T01:33:53;100376.13;;;15.82;54.17
41800;BME280;27468;47.460;19.034;2023-10-08T01:36:22;100390.03;;;15.89;53.93
41800;BME280;27468;47.460;19.034;2023-10-08T01:38:49;100400.75;;;15.87;53.90
41800;BME280;27468;47.460;19.034;2023-10-08T01:41:14;100396.34;;;15.86;53.66
41800;BME280;27468;47.460;19.034;2023-10-08T01:44:06;100390.41;;;15.79;53.36
41800;BME280;27468;47.460;19.034;2023-10-08T01:46:33;100366.69;;;15.75;53.37
41800;BME280;27468;47.460;19.034;2023-10-08T01:49:00;100423.84;;;16.07;53.23
41800;BME280;27468;47.460;19.034;2023-10-08T01:51:30;100395.84;;;15.98;53.16
41800;BME280;27468;47.460;19.034;2023-10-08T01:54:03;100394.31;;;15.93;53.26
41800;BME280;27468;47.460;19.034;2023-10-08T01:56:36;100397.38;;;16.04;53.42
41800;BME280;27468;47.460;19.034;2023-10-08T01:59:01;100380.34;;;15.88;53.19
41800;BME280;27468;47.460;19.034;2023-10-08T02:01:27;100390.66;;;15.95;53.17
41800;BME280;27468;47.460;19.034;2023-10-08T02:03:53;100334.59;;;15.59;53.30
41800;BME280;27468;47.460;19.034;2023-10-08T02:06:18;100326.88;;;15.51;53.23
41800;BME280;27468;47.460;19.034;2023-10-08T02:08:46;100390.47;;;15.78;53.32
41800;BME280;27468;47.460;19.034;2023-10-08T02:11:12;100369.53;;;15.70;52.99
41800;BME280;27468;47.460;19.034;2023-10-08T02:13:41;100398.16;;;15.85;52.93
41800;BME280;27468;47.460;19.034;2023-10-08T02:16:07;100386.91;;;15.79;52.59
41800;BME280;27468;47.460;19.034;2023-10-08T02:18:33;100354.50;;;15.69;52.63
41800;BME280;27468;47.460;19.034;2023-10-08T02:20:58;100332.78;;;15.60;52.53
41800;BME280;27468;47.460;19.034;2023-10-08T02:23:24;100320.53;;;15.56;52.48
41800;BME280;27468;47.460;19.034;2023-10-08T02:25:49;100346.72;;;15.65;52.54
41800;BME280;27468;47.460;19.034;2023-10-08T02:28:15;100370.63;;;15.87;52.50
41800;BME280;27468;47.460;19.034;2023-10-08T02:30:42;100373.28;;;15.87;52.71
41800;BME280;27468;47.460;19.034;2023-10-08T02:33:08;100385.03;;;15.81;52.86
41800;BME280;27468;47.460;19.034;2023-10-08T02:35:48;100323.25;;;15.54;52.99
41800;BME280;27468;47.460;19.034;2023-10-08T02:38:17;100343.81;;;15.71;53.04
41800;BME280;27468;47.460;19.034;2023-10-08T02:40:46;100355.13;;;15.76;53.06
41800;BME280;27468;47.460;19.034;2023-10-08T02:43:13;100364.50;;;15.84;53.21
41800;BME280;27468;47.460;19.034;2023-10-08T02:45:41;100342.88;;;15.72;53.32
41800;BME280;27468;47.460;19.034;2023-10-08T02:48:10;100343.88;;;15.69;53.33
41800;BME280;27468;47.460;19.034;2023-10-08T02:50:41;100324.00;;;15.58;53.21
41800;BME280;27468;47.460;19.034;2023-10-08T02:53:08;100359.44;;;15.78;53.65
41800;BME280;27468;47.460;19.034;2023-10-08T02:55:37;100360.25;;;15.80;53.58
41800;BME280;27468;47.460;19.034;2023-10-08T02:58:07;100327.63;;;15.55;53.78
41800;BME280;27468;47.460;19.034;2023-10-08T03:00:36;100292.03;;;15.37;53.85
41800;BME280;27468;47.460;19.034;2023-10-08T03:03:06;100333.97;;;15.73;53.81
41800;BME280;27468;47.460;19.034;2023-10-08T03:05:44;100344.25;;;15.82;53.97
41800;BME280;27468;47.460;19.034;2023-10-08T03:08:12;100314.03;;;15.63;54.33
41800;BME280;27468;47.460;19.034;2023-10-08T03:10:40;100295.19;;;15.47;54.64
41800;BME280;27468;47.460;19.034;2023-10-08T03:13:07;100341.84;;;15.76;54.39
41800;BME280;27468;47.460;19.034;2023-10-08T03:15:35;100295.00;;;15.51;54.03
41800;BME280;27468;47.460;19.034;2023-10-08T03:18:15;100342.75;;;15.75;53.88
41800;BME280;27468;47.460;19.034;2023-10-08T03:20:41;100353.31;;;15.76;53.69
41800;BME280;27468;47.460;19.034;2023-10-08T03:23:08;100346.03;;;15.81;53.44
41800;BME280;27468;47.460;19.034;2023-10-08T03:26:04;100344.78;;;15.90;53.31
41800;BME280;27468;47.460;19.034;2023-10-08T03:28:53;100291.66;;;15.68;53.20
41800;BME280;27468;47.460;19.034;2023-10-08T03:31:23;100334.81;;;15.95;53.28
41800;BME280;27468;47.460;19.034;2023-10-08T03:34:08;100328.75;;;15.92;53.05
41800;BME280;27468;47.460;19.034;2023-10-08T03:36:38;100316.53;;;15.88;53.02
41800;BME280;27468;47.460;19.034;2023-10-08T03:39:13;100317.00;;;15.97;53.43
41800;BME280;27468;47.460;19.034;2023-10-08T03:41:42;100284.22;;;15.76;53.59
41800;BME280;27468;47.460;19.034;2023-10-08T03:44:17;100322.25;;;15.99;53.79
41800;BME280;27468;47.460;19.034;2023-10-08T03:46:43;100289.00;;;15.89;53.82
41800;BME280;27468;47.460;19.034;2023-10-08T03:49:12;100307.22;;;15.98;53.96
41800;BME280;27468;47.460;19.034;2023-10-08T03:51:44;100275.84;;;15.85;54.02
41800;BME280;27468;47.460;19.034;2023-10-08T03:54:09;100270.41;;;15.89;54.13
41800;BME280;27468;47.460;19.034;2023-10-08T03:56:35;100286.81;;;15.98;54.19
41800;BME280;27468;47.460;19.034;2023-10-08T03:59:04;100255.78;;;15.78;54.33
41800;BME280;27468;47.460;19.034;2023-10-08T04:01:41;100296.59;;;15.98;54.40
41800;BME280;27468;47.460;19.034;2023-10-08T04:04:07;100269.88;;;15.80;54.54
41800;BME280;27468;47.460;19.034;2023-10-08T04:06:40;100290.53;;;15.94;54.63
41800;BME280;27468;47.460;19.034;2023-10-08T04:09:13;100245.72;;;15.65;54.53
41800;BME280;27468;47.460;19.034;2023-10-08T04:11:59;100238.38;;;15.71;54.70
41800;BME280;27468;47.460;19.034;2023-10-08T04:14:33;100264.28;;;15.87;55.09
41800;BME280;27468;47.460;19.034;2023-10-08T04:16:59;100232.25;;;15.69;55.26
41800;BME280;27468;47.460;19.034;2023-10-08T04:19:25;100290.69;;;15.91;55.35
41800;BME280;27468;47.460;19.034;2023-10-08T04:21:55;100212.97;;;15.64;55.05
41800;BME280;27468;47.460;19.034;2023-10-08T04:24:26;100278.72;;;16.01;55.16
41800;BME280;27468;47.460;19.034;2023-10-08T04:27:00;100254.91;;;15.98;55.00
41800;BME280;27468;47.460;19.034;2023-10-08T04:29:35;100269.53;;;16.08;54.96
41800;BME280;27468;47.460;19.034;2023-10-08T04:32:03;100269.53;;;16.08;54.92
41800;BME280;27468;47.460;19.034;2023-10-08T04:34:37;100269.34;;;16.13;54.97
41800;BME280;27468;47.460;19.034;2023-10-08T04:37:03;100276.00;;;16.22;54.88
41800;BME280;27468;47.460;19.034;2023-10-08T04:39:35;100220.28;;;16.00;54.69
41800;BME280;27468;47.460;19.034;2023-10-08T04:42:03;100206.91;;;16.01;54.73
41800;BME280;27468;47.460;19.034;2023-10-08T04:44:36;100248.59;;;16.40;54.45
41800;BME280;27468;47.460;19.034;2023-10-08T04:47:05;100265.13;;;16.46;54.50
41800;BME280;27468;47.460;19.034;2023-10-08T04:49:32;100263.06;;;16.53;54.36
41800;BME280;27468;47.460;19.034;2023-10-08T04:52:01;100275.56;;;16.51;54.33
41800;BME280;27468;47.460;19.034;2023-10-08T04:54:30;100276.88;;;16.61;54.03
41800;BME280;27468;47.460;19.034;2023-10-08T04:57:00;100276.69;;;16.66;53.92
41800;BME280;27468;47.460;19.034;2023-10-08T04:59:27;100283.22;;;16.77;53.67
41800;BME280;27468;47.460;19.034;2023-10-08T05:02:01;100281.22;;;16.82;53.26
41800;BME280;27468;47.460;19.034;2023-10-08T05:04:46;100270.91;;;16.94;53.13
41800;BME280;27468;47.460;19.034;2023-10-08T05:07:12;100243.78;;;16.86;53.06
41800;BME280;27468;47.460;19.034;2023-10-08T05:09:56;100264.28;;;17.02;52.71
41800;BME280;27468;47.460;19.034;2023-10-08T05:12:28;100260.19;;;16.95;52.71
41800;BME280;27468;47.460;19.034;2023-10-08T05:15:00;100259.19;;;16.98;52.57
41800;BME280;27468;47.460;19.034;2023-10-08T05:17:38;100256.16;;;17.05;52.35
41800;BME280;27468;47.460;19.034;2023-10-08T05:20:21;100272.59;;;17.32;52.19
41800;BME280;27468;47.460;19.034;2023-10-08T05:23:09;100270.66;;;17.53;51.63
41800;BME280;27468;47.460;19.034;2023-10-08T05:25:52;100284.03;;;17.70;51.37
41800;BME280;27468;47.460;19.034;2023-10-08T05:28:35;100290.63;;;17.80;51.07
41800;BME280;27468;47.460;19.034;2023-10-08T05:31:19;100293.97;;;18.01;50.57
41800;BME280;27468;47.460;19.034;2023-10-08T05:34:02;100292.41;;;18.14;50.46
41800;BME280;27468;47.460;19.034;2023-10-08T05:36:41;100260.94;;;18.04;50.05
41800;BME280;27468;47.460;19.034;2023-10-08T05:39:35;100289.38;;;18.38;49.69
41800;BME280;27468;47.460;19.034;2023-10-08T05:42:04;100283.25;;;18.36;49.91
41800;BME280;27468;47.460;19.034;2023-10-08T05:44:41;100282.59;;;18.48;50.13
41800;BME280;27468;47.460;19.034;2023-10-08T05:47:13;100274.56;;;18.32;50.50
41800;BME280;27468;47.460;19.034;2023-10-08T05:50:02;100300.00;;;18.55;50.19
41800;BME280;27468;47.460;19.034;2023-10-08T05:53:03;100310.66;;;18.72;49.58
41800;BME280;27468;47.460;19.034;2023-10-08T05:55:40;100303.75;;;18.68;49.50
41800;BME280;27468;47.460;19.034;2023-10-08T05:58:13;100318.25;;;18.80;49.55
41800;BME280;27468;47.460;19.034;2023-10-08T06:00:43;100322.25;;;18.89;49.26
41800;BME280;27468;47.460;19.034;2023-10-08T06:03:15;100308.03;;;18.88;49.14
41800;BME280;27468;47.460;19.034;2023-10-08T06:06:07;100326.38;;;18.94;49.47
41800;BME280;27468;47.460;19.034;2023-10-08T06:08:42;100293.09;;;18.84;49.30
41800;BME280;27468;47.460;19.034;2023-10-08T06:11:42;100333.81;;;19.05;48.73
41800;BME280;27468;47.460;19.034;2023-10-08T06:14:21;100301.91;;;18.86;49.47
41800;BME280;27468;47.460;19.034;2023-10-08T06:17:05;100341.53;;;19.09;49.00
41800;BME280;27468;47.460;19.034;2023-10-08T06:19:51;100341.28;;;19.14;49.47
41800;BME280;27468;47.460;19.034;2023-10-08T06:22:18;100343.63;;;19.20;49.23
41800;BME280;27468;47.460;19.034;2023-10-08T06:24:44;100334.91;;;19.17;48.98
41800;BME280;27468;47.460;19.034;2023-10-08T06:27:10;100277.00;;;18.86;49.13
41800;BME280;27468;47.460;19.034;2023-10-08T06:29:41;100347.34;;;19.33;48.77
41800;BME280;27468;47.460;19.034;2023-10-08T06:32:10;100349.41;;;19.28;49.32
41800;BME280;27468;47.460;19.034;2023-10-08T06:34:37;100344.66;;;19.33;48.96
41800;BME280;27468;47.460;19.034;2023-10-08T06:37:05;100321.13;;;19.24;48.74
41800;BME280;27468;47.460;19.034;2023-10-08T06:39:31;100365.09;;;19.50;48.74
41800;BME280;27468;47.460;19.034;2023-10-08T06:42:13;100357.44;;;19.44;48.63
41800;BME280;27468;47.460;19.034;2023-10-08T06:44:39;100379.03;;;19.57;48.84
41800;BME280;27468;47.460;19.034;2023-10-08T06:47:07;100313.63;;;19.31;48.63
41800;BME280;27468;47.460;19.034;2023-10-08T06:49:35;100323.63;;;19.43;48.44
41800;BME280;27468;47.460;19.034;2023-10-08T06:52:01;100365.66;;;19.57;48.42
41800;BME280;27468;47.460;19.034;2023-10-08T06:54:27;100369.44;;;19.53;48.65
41800;BME280;27468;47.460;19.034;2023-10-08T06:56:56;100375.38;;;19.42;49.30
41800;BME280;27468;47.460;19.034;2023-10-08T06:59:21;100371.41;;;19.33;49.29
41800;BME280;27468;47.460;19.034;2023-10-08T07:01:51;100362.75;;;19.28;50.04
41800;BME280;27468;47.460;19.034;2023-10-08T07:04:17;100361.13;;;19.26;49.76
41800;BME280;27468;47.460;19.034;2023-10-08T07:06:46;100327.59;;;19.04;50.04
41800;BME280;27468;47.460;19.034;2023-10-08T07:09:13;100333.03;;;19.03;49.88
41800;BME280;27468;47.460;19.034;2023-10-08T07:11:50;100333.59;;;19.08;49.88
41800;BME280;27468;47.460;19.034;2023-10-08T07:14:23;100356.13;;;19.20;50.19
41800;BME280;27468;47.460;19.034;2023-10-08T07:16:58;100359.75;;;19.19;50.46
41800;BME280;27468;47.460;19.034;2023-10-08T07:19:25;100347.50;;;19.14;50.33
41800;BME280;27468;47.460;19.034;2023-10-08T07:22:01;100337.59;;;19.17;50.98
41800;BME280;27468;47.460;19.034;2023-10-08T07:24:43;100333.34;;;19.12;50.73
41800;BME280;27468;47.460;19.034;2023-10-08T07:27:11;100353.03;;;19.27;50.76
41800;BME280;27468;47.460;19.034;2023-10-08T07:29:36;100314.72;;;19.11;50.82
41800;BME280;27468;47.460;19.034;2023-10-08T07:32:02;100352.75;;;19.32;51.13
41800;BME280;27468;47.460;19.034;2023-10-08T07:34:36;100304.91;;;19.11;51.52
41800;BME280;27468;47.460;19.034;2023-10-08T07:37:01;100330.94;;;19.24;51.86
41800;BME280;27468;47.460;19.034;2023-10-08T07:39:27;100352.41;;;19.38;51.73
41800;BME280;27468;47.460;19.034;2023-10-08T07:42:00;100350.78;;;19.35;51.78
41800;BME280;27468;47.460;19.034;2023-10-08T07:44:26;100354.94;;;19.41;52.03
41800;BME280;27468;47.460;19.034;2023-10-08T07:46:55;100355.69;;;19.43;51.73
41800;BME280;27468;47.460;19.034;2023-10-08T07:49:21;100287.50;;;19.20;52.52
41800;BME280;27468;47.460;19.034;2023-10-08T07:51:48;100347.69;;;19.43;52.38
41800;BME280;27468;47.460;19.034;2023-10-08T07:54:21;100291.28;;;19.16;53.04
41800;BME280;27468;47.460;19.034;2023-10-08T07:56:49;100343.03;;;19.46;53.15
41800;BME280;27468;47.460;19.034;2023-10-08T07:59:17;100337.59;;;19.48;53.00
41800;BME280;27468;47.460;19.034;2023-10-08T08:01:43;100348.91;;;19.53;53.56
41800;BME280;27468;47.460;19.034;2023-10-08T08:04:12;100347.69;;;19.59;53.27
41800;BME280;27468;47.460;19.034;2023-10-08T08:06:49;100334.50;;;19.56;53.61
41800;BME280;27468;47.460;19.034;2023-10-08T08:09:18;100347.31;;;19.65;54.04
41800;BME280;27468;47.460;19.034;2023-10-08T08:11:48;100354.00;;;19.58;53.91
41800;BME280;27468;47.460;19.034;2023-10-08T08:14:17;100350.59;;;19.70;53.59
41800;BME280;27468;47.460;19.034;2023-10-08T08:16:47;100295.16;;;19.42;53.95
41800;BME280;27468;47.460;19.034;2023-10-08T08:19:14;100358.53;;;19.71;53.79
41800;BME280;27468;47.460;19.034;2023-10-08T08:21:42;100336.91;;;19.60;53.50
41800;BME280;27468;47.460;19.034;2023-10-08T08:24:13;100352.50;;;19.68;53.89
41800;BME280;27468;47.460;19.034;2023-10-08T08:26:56;100302.22;;;19.43;54.05
41800;BME280;27468;47.460;19.034;2023-10-08T08:29:36;100353.28;;;19.70;54.11
41800;BME280;27468;47.460;19.034;2023-10-08T08:32:11;100346.69;;;19.75;54.02
41800;BME280;27468;47.460;19.034;2023-10-08T08:34:47;100320.00;;;19.60;54.00
41800;BME280;27468;47.460;19.034;2023-10-08T08:37:16;100365.59;;;19.88;54.27
41800;BME280;27468;47.460;19.034;2023-10-08T08:39:41;100371.53;;;19.93;54.39
41800;BME280;27468;47.460;19.034;2023-10-08T08:42:07;100345.63;;;19.94;54.17
41800;BME280;27468;47.460;19.034;2023-10-08T08:44:37;100345.28;;;20.00;54.34
41800;BME280;27468;47.460;19.034;2023-10-08T08:47:12;100349.63;;;20.17;54.18
41800;BME280;27468;47.460;19.034;2023-10-08T08:49:42;100346.28;;;20.27;53.96
41800;BME280;27468;47.460;19.034;2023-10-08T08:52:08;100366.34;;;20.50;53.21
41800;BME280;27468;47.460;19.034;2023-10-08T08:54:34;100352.47;;;20.43;53.75
41800;BME280;27468;47.460;19.034;2023-10-08T08:57:03;100359.25;;;20.49;53.56
41800;BME280;27468;47.460;19.034;2023-10-08T08:59:30;100367.13;;;20.66;53.43
41800;BME280;27468;47.460;19.034;2023-10-08T09:01:59;100353.16;;;20.61;53.32
41800;BME280;27468;47.460;19.034;2023-10-08T09:04:31;100356.41;;;20.66;53.01
41800;BME280;27468;47.460;19.034;2023-10-08T09:06:59;100387.03;;;20.91;52.84
41800;BME280;27468;47.460;19.034;2023-10-08T09:09:32;100319.94;;;20.50;53.18
41800;BME280;27468;47.460;19.034;2023-10-08T09:11:57;100383.19;;;20.95;52.67
41800;BME280;27468;47.460;19.034;2023-10-08T09:14:24;100402.16;;;21.06;52.96
41800;BME280;27468;47.460;19.034;2023-10-08T09:16:56;100410.47;;;21.01;53.12
41800;BME280;27468;47.460;19.034;2023-10-08T09:19:23;100417.47;;;21.18;52.63
41800;BME280;27468;47.460;19.034;2023-10-08T09:22:04;100399.28;;;21.09;52.52
41800;BME280;27468;47.460;19.034;2023-10-08T09:24:34;100427.25;;;21.33;52.22
41800;BME280;27468;47.460;19.034;2023-10-08T09:27:02;100420.28;;;21.31;52.64
41800;BME280;27468;47.460;19.034;2023-10-08T09:29:28;100378.22;;;21.17;52.54
41800;BME280;27468;47.460;19.034;2023-10-08T09:31:55;100438.44;;;21.40;52.37
41800;BME280;27468;47.460;19.034;2023-10-08T09:34:25;100438.19;;;21.30;52.18
41800;BME280;27468;47.460;19.034;2023-10-08T09:36:52;100465.56;;;21.35;52.47
41800;BME280;27468;47.460;19.034;2023-10-08T09:39:19;100468.34;;;21.34;53.00
41800;BME280;27468;47.460;19.034;2023-10-08T09:41:56;100456.75;;;21.33;53.01
41800;BME280;27468;47.460;19.034;2023-10-08T09:44:23;100458.53;;;21.19;53.22
41800;BME280;27468;47.460;19.034;2023-10-08T09:46:54;100452.31;;;21.04;53.73
41800;BME280;27468;47.460;19.034;2023-10-08T09:49:32;100464.31;;;21.27;53.43
41800;BME280;27468;47.460;19.034;2023-10-08T09:52:07;100459.72;;;21.29;53.13
41800;BME280;27468;47.460;19.034;2023-10-08T09:54:43;100462.78;;;21.37;53.03
41800;BME280;27468;47.460;19.034;2023-10-08T09:57:10;100475.88;;;21.56;53.24
41800;BME280;27468;47.460;19.034;2023-10-08T09:59:36;100476.44;;;21.61;53.04
41800;BME280;27468;47.460;19.034;2023-10-08T10:02:04;100480.25;;;21.71;53.34
41800;BME280;27468;47.460;19.034;2023-10-08T10:04:31;100497.19;;;21.86;52.80
41800;BME280;27468;47.460;19.034;2023-10-08T10:06:57;100507.66;;;21.76;53.34
41800;BME280;27468;47.460;19.034;2023-10-08T10:09:24;100487.56;;;21.40;53.78
41800;BME280;27468;47.460;19.034;2023-10-08T10:11:50;100479.63;;;21.39;53.82
41800;BME280;27468;47.460;19.034;2023-10-08T10:14:17;100535.94;;;21.53;53.97
41800;BME280;27468;47.460;19.034;2023-10-08T10:16:49;100521.13;;;21.33;54.53
41800;BME280;27468;47.460;19.034;2023-10-08T10:19:29;100550.50;;;21.49;54.43
41800;BME280;27468;47.460;19.034;2023-10-08T10:21:55;100549.56;;;21.36;54.80
41800;BME280;27468;47.460;19.034;2023-10-08T10:24:35;100545.06;;;21.22;55.67
41800;BME280;27468;47.460;19.034;2023-10-08T10:27:15;100523.94;;;21.16;55.88
41800;BME280;27468;47.460;19.034;2023-10-08T10:29:44;100532.59;;;21.21;56.07
41800;BME280;27468;47.460;19.034;2023-10-08T10:32:11;100545.47;;;21.15;55.69
41800;BME280;27468;47.460;19.034;2023-10-08T10:34:41;100522.59;;;21.09;55.89
41800;BME280;27468;47.460;19.034;2023-10-08T10:37:07;100530.72;;;21.07;55.12
41800;BME280;27468;47.460;19.034;2023-10-08T10:39:56;100519.31;;;21.04;55.10
41800;BME280;27468;47.460;19.034;2023-10-08T10:42:25;100557.59;;;21.22;54.49
41800;BME280;27468;47.460;19.034;2023-10-08T10:44:53;100536.06;;;21.23;53.66
41800;BME280;27468;47.460;19.034;2023-10-08T10:47:21;100536.91;;;21.24;51.95
41800;BME280;27468;47.460;19.034;2023-10-08T10:49:48;100514.34;;;21.12;52.19
41800;BME280;27468;47.460;19.034;2023-10-08T10:52:36;100501.44;;;21.19;52.06
41800;BME280;27468;47.460;19.034;2023-10-08T10:55:17;100525.03;;;21.28;51.48
41800;BME280;27468;47.460;19.034;2023-10-08T10:57:46;100577.03;;;21.39;52.08
41800;BME280;27468;47.460;19.034;2023-10-08T11:00:20;100591.03;;;21.45;51.88
41800;BME280;27468;47.460;19.034;2023-10-08T11:03:12;100568.91;;;21.27;50.38
41800;BME280;27468;47.460;19.034;2023-10-08T11:05:57;100579.16;;;21.34;50.54
41800;BME280;27468;47.460;19.034;2023-10-08T11:08:31;100587.97;;;21.36;49.64
41800;BME280;27468;47.460;19.034;2023-10-08T11:11:00;100583.19;;;21.12;49.82
41800;BME280;27468;47.460;19.034;2023-10-08T11:13:32;100557.06;;;20.71;49.06
41800;BME280;27468;47.460;19.034;2023-10-08T11:16:03;100599.69;;;20.90;48.23
41800;BME280;27468;47.460;19.034;2023-10-08T11:18:29;100558.72;;;20.58;48.26
41800;BME280;27468;47.460;19.034;2023-10-08T11:21:06;100589.25;;;20.85;47.85
41800;BME280;27468;47.460;19.034;2023-10-08T11:23:46;100598.28;;;20.68;47.95
41800;BME280;27468;47.460;19.034;2023-10-08T11:26:17;100534.81;;;20.55;47.58
41800;BME280;27468;47.460;19.034;2023-10-08T11:28:44;100574.41;;;20.80;47.48
41800;BME280;27468;47.460;19.034;2023-10-08T11:31:14;100537.16;;;20.45;46.90
41800;BME280;27468;47.460;19.034;2023-10-08T11:33:45;100587.84;;;20.64;45.80
41800;BME280;27468;47.460;19.034;2023-10-08T11:36:19;100559.94;;;20.36;46.37
41800;BME280;27468;47.460;19.034;2023-10-08T11:38:47;100601.25;;;20.48;45.47
41800;BME280;27468;47.460;19.034;2023-10-08T11:41:14;100556.34;;;20.22;45.81
41800;BME280;27468;47.460;19.034;2023-10-08T11:43:54;100620.31;;;20.26;45.37
41800;BME280;27468;47.460;19.034;2023-10-08T11:46:27;100581.72;;;19.99;46.02
41800;BME280;27468;47.460;19.034;2023-10-08T11:48:54;100597.84;;;19.97;45.87
41800;BME280;27468;47.460;19.034;2023-10-08T11:51:24;100624.88;;;19.93;45.97
41800;BME280;27468;47.460;19.034;2023-10-08T11:53:50;100615.78;;;19.79;46.69
41800;BME280;27468;47.460;19.034;2023-10-08T11:56:17;100599.34;;;19.70;46.61
41800;BME280;27468;47.460;19.034;2023-10-08T11:58:46;100572.84;;;19.32;46.36
41800;BME280;27468;47.460;19.034;2023-10-08T12:01:11;100596.19;;;19.46;46.69
41800;BME280;27468;47.460;19.034;2023-10-08T12:03:42;100608.44;;;19.50;47.40
41800;BME280;27468;47.460;19.034;2023-10-08T12:06:09;100612.72;;;19.54;47.79
41800;BME280;27468;47.460;19.034;2023-10-08T12:08:40;100640.94;;;19.60;47.44
41800;BME280;27468;47.460;19.034;2023-10-08T12:11:06;100638.44;;;19.57;47.57
41800;BME280;27468;47.460;19.034;2023-10-08T12:13:40;100653.78;;;19.53;45.77
41800;BME280;27468;47.460;19.034;2023-10-08T12:16:16;100631.50;;;19.18;44.76
41800;BME280;27468;47.460;19.034;2023-10-08T12:18:47;100680.25;;;19.23;45.36
41800;BME280;27468;47.460;19.034;2023-10-08T12:21:22;100674.66;;;18.93;46.21
41800;BME280;27468;47.460;19.034;2023-10-08T12:23:50;100652.22;;;18.78;46.44
41800;BME280;27468;47.460;19.034;2023-10-08T12:26:17;100697.84;;;18.93;46.30
41800;BME280;27468;47.460;19.034;2023-10-08T12:28:45;100706.44;;;18.80;46.73
41800;BME280;27468;47.460;19.034;2023-10-08T12:31:12;100712.94;;;18.75;47.17
41800;BME280;27468;47.460;19.034;2023-10-08T12:33:37;100647.25;;;18.52;47.17
41800;BME280;27468;47.460;19.034;2023-10-08T12:36:03;100679.81;;;18.60;47.66
41800;BME280;27468;47.460;19.034;2023-10-08T12:38:36;100677.94;;;18.43;48.04
41800;BME280;27468;47.460;19.034;2023-10-08T12:41:02;100704.06;;;18.74;48.33
41800;BME280;27468;47.460;19.034;2023-10-08T12:43:37;100667.78;;;18.33;48.21
41800;BME280;27468;47.460;19.034;2023-10-08T12:46:04;100663.72;;;18.24;48.08
41800;BME280;27468;47.460;19.034;2023-10-08T12:48:36;100712.13;;;18.54;48.10
41800;BME280;27468;47.460;19.034;2023-10-08T12:51:02;100636.09;;;17.88;48.38
41800;BME280;27468;47.460;19.034;2023-10-08T12:53:31;100628.97;;;17.88;48.97
41800;BME280;27468;47.460;19.034;2023-10-08T12:56:00;100693.38;;;18.18;48.46
41800;BME280;27468;47.460;19.034;2023-10-08T12:58:31;100733.50;;;18.35;47.61
41800;BME280;27468;47.460;19.034;2023-10-08T13:01:00;100746.88;;;18.15;47.96